Time;durP1;ratioP1;P1;durP2;ratioP2;P2;SDS_P1;SDS_P2;PMS_P1;PMS_P2;Temp;Humidity;BMP_temperature;BMP_pressure;BME280_temperature;BME280_humidity;BME280_pressure;Samples;Min_cycle;Max_cycle;Signal;HPM_P1;HPM_P2
2022/05/20 00:01:10;;;;;;;0.53;0.53;;;17.40;99.90;;;;;;5039437;28;20185;-82
2022/05/20 00:03:37;;;;;;;0.63;0.43;;;17.50;99.90;;;;;;5038666;28;20258;-82
2022/05/20 00:06:03;;;;;;;0.40;0.40;;;17.70;99.90;;;;;;5058486;28;20909;-83
2022/05/20 00:08:29;;;;;;;0.20;0.20;;;18.00;99.90;;;;;;5057293;28;20289;-82
2022/05/20 00:10:55;;;;;;;0.63;0.63;;;18.20;99.90;;;;;;5038947;28;20283;-83
2022/05/20 00:13:26;;;;;;;0.87;0.47;;;18.40;99.90;;;;;;5039843;28;20556;-82
2022/05/20 00:15:53;;;;;;;0.40;0.40;;;18.60;99.90;;;;;;5040078;28;20324;-82
2022/05/20 00:18:19;;;;;;;0.20;0.20;;;18.70;99.90;;;;;;5040764;28;20190;-83
2022/05/20 00:20:45;;;;;;;0.70;0.70;;;18.80;99.90;;;;;;5058825;28;20189;-82
2022/05/20 00:23:11;;;;;;;0.50;0.50;;;18.90;99.90;;;;;;5038350;28;20182;-82
2022/05/20 00:25:45;;;;;;;0.50;0.50;;;19.00;99.90;;;;;;5039723;28;20231;-83
2022/05/20 00:28:16;;;;;;;0.60;0.43;;;19.00;99.90;;;;;;5039630;28;20182;-82
2022/05/20 00:30:42;;;;;;;0.40;0.40;;;19.00;99.90;;;;;;5058261;28;20193;-82
2022/05/20 00:33:08;;;;;;;0.67;0.67;;;18.70;99.90;;;;;;5054530;28;20801;-83
2022/05/20 00:35:34;;;;;;;0.50;0.50;;;18.60;99.90;;;;;;5037320;28;20326;-83
2022/05/20 00:37:59;;;;;;;0.60;0.37;;;18.70;99.90;;;;;;5057228;28;20218;-82
2022/05/20 00:40:27;;;;;;;0.30;0.30;;;18.90;99.90;;;;;;5038297;28;20196;-83
2022/05/20 00:43:07;;;;;;;0.40;0.40;;;19.10;99.90;;;;;;5058698;28;21123;-82
2022/05/20 00:45:33;;;;;;;1.07;0.73;;;19.30;99.90;;;;;;5056943;28;20177;-82
2022/05/20 00:47:58;;;;;;;0.60;0.60;;;19.30;99.90;;;;;;5058094;28;20189;-82
2022/05/20 00:50:24;;;;;;;0.40;0.40;;;19.40;99.90;;;;;;5058731;28;20746;-83
2022/05/20 00:52:50;;;;;;;0.43;0.43;;;19.40;99.90;;;;;;5037535;28;20185;-82
2022/05/20 00:55:19;;;;;;;0.70;0.70;;;19.40;99.90;;;;;;5057173;28;20184;-82
2022/05/20 00:57:54;;;;;;;0.80;0.80;;;19.50;99.90;;;;;;5057514;28;20193;-82
2022/05/20 01:00:25;;;;;;;0.83;0.60;;;19.40;99.90;;;;;;5040925;28;20185;-82
2022/05/20 01:02:54;;;;;;;0.80;0.40;;;19.10;99.90;;;;;;5036577;28;20177;-82
2022/05/20 01:05:53;;;;;;;0.60;0.60;;;18.80;99.90;;;;;;5070719;28;20216;-82
2022/05/20 01:08:28;;;;;;;0.47;0.47;;;18.30;99.90;;;;;;5012310;28;20205;-82
2022/05/20 01:10:54;;;;;;;0.37;0.37;;;18.00;99.90;;;;;;5038070;28;20184;-82
2022/05/20 01:13:23;;;;;;;0.80;0.47;;;18.20;99.90;;;;;;5054957;28;20193;-83
2022/05/20 01:15:48;;;;;;;0.40;0.37;;;18.30;99.90;;;;;;5038084;28;21054;-81
2022/05/20 01:18:15;;;;;;;0.40;0.40;;;18.50;99.90;;;;;;5071709;28;20177;-82
2022/05/20 01:20:48;;;;;;;0.80;0.70;;;18.60;99.90;;;;;;5037304;28;20206;-82
2022/05/20 01:23:19;;;;;;;0.40;0.40;;;18.70;99.90;;;;;;5038550;28;20270;-82
2022/05/20 01:25:50;;;;;;;0.30;0.30;;;18.80;99.90;;;;;;5038416;28;20221;-82
2022/05/20 01:28:18;;;;;;;0.70;0.50;;;18.80;99.90;;;;;;5038745;28;20643;-83
2022/05/20 01:30:53;;;;;;;0.47;0.47;;;18.70;99.90;;;;;;5055074;28;20217;-82
2022/05/20 01:33:47;;;;;;;0.40;0.40;;;18.70;99.90;;;;;;5054352;28;20184;-82
2022/05/20 01:36:20;;;;;;;0.37;0.37;;;18.80;99.90;;;;;;5035606;28;20402;-82
2022/05/20 01:38:46;;;;;;;0.60;0.60;;;18.90;99.90;;;;;;5070704;28;20193;-82
2022/05/20 01:41:31;;;;;;;0.70;0.70;;;18.60;99.90;;;;;;5057626;28;20564;-83
2022/05/20 01:44:10;;;;;;;0.67;0.67;;;18.20;99.90;;;;;;5056344;28;20670;-82
2022/05/20 01:47:11;;;;;;;1.57;0.70;;;18.10;99.90;;;;;;5054302;28;20208;-82
2022/05/20 01:49:53;;;;;;;0.67;0.67;;;17.70;99.90;;;;;;5055306;28;20201;-82
2022/05/20 01:52:40;;;;;;;0.60;0.60;;;17.60;99.90;;;;;;5055229;28;20181;-83
2022/05/20 01:55:30;;;;;;;0.40;0.40;;;17.70;99.90;;;;;;5068521;28;20221;-83
2022/05/20 01:58:14;;;;;;;0.37;0.37;;;17.70;99.90;;;;;;5053660;28;20680;-83
2022/05/20 02:00:41;;;;;;;0.50;0.50;;;17.90;99.90;;;;;;5056352;28;20533;-82
2022/05/20 02:03:28;;;;;;;0.40;0.40;;;18.30;99.90;;;;;;5035726;28;20577;-82
2022/05/20 02:06:02;;;;;;;0.47;0.47;;;18.50;99.90;;;;;;5041298;28;20234;-82
2022/05/20 02:08:37;;;;;;;0.87;0.87;;;18.70;99.90;;;;;;5051442;28;20194;-83
2022/05/20 02:11:06;;;;;;;0.57;0.57;;;18.20;99.90;;;;;;5067341;28;20185;-82
2022/05/20 02:13:36;;;;;;;0.77;0.70;;;17.90;99.90;;;;;;5054632;28;20178;-83
2022/05/20 02:16:13;;;;;;;0.20;0.20;;;18.00;99.90;;;;;;5034623;28;20204;-82
2022/05/20 02:18:45;;;;;;;0.77;0.53;;;18.00;99.90;;;;;;5039364;28;20205;-82
2022/05/20 02:21:15;;;;;;;1.50;1.40;;;18.00;99.90;;;;;;5054541;28;20173;-83
2022/05/20 02:23:46;;;;;;;0.40;0.40;;;18.30;99.90;;;;;;5039291;28;20208;-83
2022/05/20 02:26:15;;;;;;;1.20;1.10;;;18.50;99.90;;;;;;5054738;28;20202;-82
2022/05/20 02:28:44;;;;;;;1.93;0.87;;;18.50;99.90;;;;;;5051550;28;20294;-83
2022/05/20 02:31:22;;;;;;;0.30;0.30;;;18.60;99.90;;;;;;5035708;28;20178;-83
2022/05/20 02:33:48;;;;;;;0.50;0.40;;;18.60;99.90;;;;;;5053812;28;20200;-82
2022/05/20 02:36:34;;;;;;;0.83;0.83;;;17.70;99.90;;;;;;5037420;28;20213;-83
2022/05/20 02:39:01;;;;;;;2.00;0.60;;;17.70;99.90;;;;;;5056219;28;20497;-82
2022/05/20 02:41:27;;;;;;;1.07;0.90;;;17.40;99.90;;;;;;5035498;28;20188;-82
2022/05/20 02:43:52;;;;;;;0.37;0.37;;;17.40;99.90;;;;;;5037651;28;20185;-82
2022/05/20 02:46:18;;;;;;;2.00;1.50;;;17.50;99.90;;;;;;5052860;28;20232;-82
2022/05/20 02:48:43;;;;;;;1.90;1.63;;;17.40;99.90;;;;;;5070312;28;20182;-82
2022/05/20 02:51:09;;;;;;;0.80;0.77;;;17.30;99.90;;;;;;5057057;28;20185;-82
2022/05/20 02:53:35;;;;;;;1.50;0.60;;;17.40;99.90;;;;;;5036784;28;20192;-82
2022/05/20 02:56:03;;;;;;;0.53;0.53;;;17.50;99.90;;;;;;5038107;28;20254;-82
2022/05/20 03:04:12;;;;;;;0.40;0.40;;;17.00;99.90;;;;;;5056874;28;20259;-82
2022/05/20 03:06:40;;;;;;;4.60;0.47;;;17.00;99.90;;;;;;5038403;28;20669;-82
2022/05/20 03:09:07;;;;;;;0.80;0.80;;;17.00;99.90;;;;;;5055493;28;20234;-82
2022/05/20 03:11:34;;;;;;;0.43;0.43;;;17.10;99.90;;;;;;5055699;28;20690;-82
2022/05/20 03:14:01;;;;;;;0.30;0.30;;;17.00;99.90;;;;;;5037646;28;20242;-82
2022/05/20 03:16:27;;;;;;;0.27;0.27;;;17.10;99.90;;;;;;5037687;28;20698;-82
2022/05/20 03:18:53;;;;;;;0.40;0.40;;;17.20;99.90;;;;;;5054933;28;20254;-82
2022/05/20 03:21:18;;;;;;;0.57;0.57;;;17.40;99.90;;;;;;5037903;28;20178;-82
2022/05/20 03:23:44;;;;;;;0.20;0.20;;;17.50;99.90;;;;;;5037298;28;20243;-82
2022/05/20 03:26:09;;;;;;;0.80;0.80;;;17.60;99.90;;;;;;5056023;28;20213;-82
2022/05/20 03:28:35;;;;;;;0.33;0.33;;;17.70;99.90;;;;;;5034944;28;20200;-82
2022/05/20 03:31:08;;;;;;;0.67;0.60;;;17.90;99.90;;;;;;5037990;28;20195;-82
2022/05/20 03:33:34;;;;;;;0.70;0.70;;;18.10;99.90;;;;;;5054487;28;20173;-82
2022/05/20 03:36:00;;;;;;;1.27;0.70;;;18.30;99.90;;;;;;5038482;28;20213;-81
2022/05/20 03:38:25;;;;;;;0.57;0.57;;;18.40;99.90;;;;;;5057639;28;20549;-83
2022/05/20 03:40:51;;;;;;;1.00;0.70;;;18.40;99.90;;;;;;5056012;28;21248;-82
2022/05/20 03:43:16;;;;;;;0.30;0.30;;;18.50;99.90;;;;;;5039564;28;20187;-82
2022/05/20 03:45:42;;;;;;;0.60;0.60;;;18.60;99.90;;;;;;5041589;28;20316;-82
2022/05/20 03:48:09;;;;;;;0.37;0.37;;;18.70;99.90;;;;;;5056428;28;20181;-82
2022/05/20 03:50:35;;;;;;;0.83;0.77;;;18.80;99.90;;;;;;5039552;28;20182;-82
2022/05/20 03:53:00;;;;;;;0.50;0.50;;;18.50;99.90;;;;;;5056631;28;20611;-82
2022/05/20 03:55:26;;;;;;;0.57;0.57;;;18.60;99.90;;;;;;5040086;28;20292;-82
2022/05/20 03:57:52;;;;;;;0.30;0.30;;;18.50;99.90;;;;;;5038473;28;20190;-82
2022/05/20 04:00:18;;;;;;;0.40;0.40;;;18.30;99.90;;;;;;5037963;28;20191;-82
2022/05/20 04:02:44;;;;;;;0.30;0.30;;;18.40;99.90;;;;;;5029592;28;20730;-82
2022/05/20 04:05:09;;;;;;;0.67;0.67;;;18.10;99.90;;;;;;5038691;28;20190;-82
2022/05/20 04:07:36;;;;;;;0.87;0.40;;;17.80;99.90;;;;;;5053611;28;20296;-83
2022/05/20 04:10:02;;;;;;;0.80;0.80;;;17.60;99.90;;;;;;5036522;28;20189;-82
2022/05/20 04:12:32;;;;;;;0.27;0.20;;;17.40;99.90;;;;;;5054087;28;20181;-82
2022/05/20 04:14:58;;;;;;;0.20;0.20;;;17.60;99.90;;;;;;5034581;28;20341;-82
2022/05/20 04:17:24;;;;;;;0.40;0.40;;;17.80;99.90;;;;;;5035543;28;20213;-82
2022/05/20 04:19:50;;;;;;;0.50;0.50;;;18.00;99.90;;;;;;5035781;28;20188;-82
2022/05/20 04:22:25;;;;;;;0.40;0.40;;;18.10;99.90;;;;;;5037261;28;20181;-82
2022/05/20 04:24:51;;;;;;;0.60;0.60;;;17.90;99.90;;;;;;5053987;28;20668;-82
2022/05/20 04:27:16;;;;;;;0.57;0.50;;;17.80;99.90;;;;;;5051253;28;20214;-82
2022/05/20 04:29:42;;;;;;;0.40;0.40;;;18.00;99.90;;;;;;5053580;28;20199;-82
2022/05/20 04:32:08;;;;;;;0.40;0.40;;;18.20;99.90;;;;;;5036330;28;20558;-82
2022/05/20 04:34:34;;;;;;;0.77;0.77;;;18.20;99.90;;;;;;5036195;28;20196;-82
2022/05/20 04:37:00;;;;;;;0.40;0.40;;;18.00;99.90;;;;;;5036256;28;20217;-82
2022/05/20 04:39:25;;;;;;;0.93;0.43;;;17.60;99.90;;;;;;5055937;28;20190;-82
2022/05/20 04:47:27;;;;;;;0.80;0.80;;;17.00;99.90;;;;;;5059057;28;20325;-82
2022/05/20 04:49:53;;;;;;;0.40;0.40;;;17.30;99.90;;;;;;5040262;28;20188;-82
2022/05/20 04:52:19;;;;;;;0.40;0.40;;;17.50;99.90;;;;;;5035482;28;20192;-82
2022/05/20 04:54:52;;;;;;;1.53;0.40;;;17.70;99.90;;;;;;5036702;28;20204;-82
2022/05/20 04:57:36;;;;;;;0.40;0.40;;;17.60;99.90;;;;;;5037080;28;20225;-82
2022/05/20 05:00:31;;;;;;;0.47;0.47;;;17.90;99.90;;;;;;5036410;28;20188;-82
2022/05/20 05:02:57;;;;;;;0.20;0.20;;;18.10;99.90;;;;;;5036262;28;20593;-82
2022/05/20 05:05:26;;;;;;;1.40;0.63;;;18.20;99.90;;;;;;5032978;28;20185;-82
2022/05/20 05:07:54;;;;;;;0.57;0.57;;;18.20;99.90;;;;;;5032975;28;20664;-82
2022/05/20 05:10:25;;;;;;;0.23;0.23;;;18.40;99.90;;;;;;5053230;28;20184;-82
2022/05/20 05:12:51;;;;;;;0.57;0.37;;;18.50;99.90;;;;;;5052491;28;20193;-82
2022/05/20 05:15:18;;;;;;;0.60;0.60;;;18.70;99.90;;;;;;5051815;28;20189;-81
2022/05/20 05:20:30;;;;;;;0.63;0.63;;;18.60;99.90;;;;;;5054280;28;20207;-81
2022/05/20 05:22:56;;;;;;;0.43;0.43;;;18.90;99.90;;;;;;5054366;28;20269;-81
2022/05/20 05:25:26;;;;;;;2.87;0.67;;;18.60;99.90;;;;;;5053451;28;20214;-81
2022/05/20 05:27:52;;;;;;;1.43;0.60;;;18.50;99.90;;;;;;5052068;28;20193;-82
2022/05/20 05:30:17;;;;;;;2.33;1.90;;;18.80;99.90;;;;;;5029461;28;20181;-81
2022/05/20 05:32:44;;;;;;;0.37;0.37;;;19.10;99.90;;;;;;5050480;28;20732;-81
2022/05/20 05:35:14;;;;;;;0.50;0.50;;;19.40;99.90;;;;;;5035815;28;21057;-81
2022/05/20 05:37:41;;;;;;;0.50;0.50;;;19.60;99.90;;;;;;5033824;28;20210;-81
2022/05/20 05:40:09;;;;;;;0.27;0.20;;;19.70;99.90;;;;;;5053662;28;21199;-81
2022/05/20 05:42:35;;;;;;;0.97;0.43;;;19.80;99.90;;;;;;5055262;28;20182;-80
2022/05/20 05:45:03;;;;;;;0.50;0.50;;;19.80;99.90;;;;;;5057183;28;20188;-81
2022/05/20 05:47:29;;;;;;;0.43;0.43;;;19.80;99.90;;;;;;5051677;28;20205;-81
2022/05/20 05:49:54;;;;;;;0.30;0.30;;;19.90;99.90;;;;;;5038503;28;20194;-81
2022/05/20 05:52:20;;;;;;;0.20;0.20;;;20.00;99.90;;;;;;5055364;28;20670;-81
2022/05/20 05:54:45;;;;;;;0.50;0.50;;;20.10;99.90;;;;;;5038119;28;20224;-81
2022/05/20 05:57:11;;;;;;;0.73;0.73;;;20.30;99.90;;;;;;5039796;28;20214;-81
2022/05/20 05:59:37;;;;;;;0.63;0.40;;;20.40;99.90;;;;;;5056342;28;20182;-81
2022/05/20 06:02:04;;;;;;;0.77;0.77;;;20.50;99.90;;;;;;5037563;28;20185;-82
2022/05/20 06:04:30;;;;;;;0.67;0.67;;;20.40;99.90;;;;;;5054426;28;20245;-81
2022/05/20 06:06:55;;;;;;;5.60;0.47;;;20.50;99.90;;;;;;5037051;28;20304;-81
2022/05/20 06:09:22;;;;;;;0.93;0.40;;;20.20;99.90;;;;;;5055180;28;20549;-81
2022/05/20 06:11:49;;;;;;;0.60;0.60;;;20.20;99.90;;;;;;5035725;28;20254;-81
2022/05/20 06:14:16;;;;;;;0.57;0.40;;;20.20;99.90;;;;;;5033013;28;20284;-81
2022/05/20 06:16:42;;;;;;;0.70;0.70;;;20.30;99.90;;;;;;5034922;28;20216;-81
2022/05/20 06:19:08;;;;;;;0.47;0.37;;;20.30;99.90;;;;;;5037231;28;20185;-81
2022/05/20 06:21:34;;;;;;;1.50;1.20;;;20.30;99.90;;;;;;5037216;28;20678;-81
2022/05/20 06:24:01;;;;;;;0.80;0.80;;;19.90;99.90;;;;;;5038728;28;20279;-81
2022/05/20 06:26:28;;;;;;;1.47;1.07;;;19.90;99.90;;;;;;5054884;28;20209;-81
2022/05/20 06:28:53;;;;;;;0.67;0.67;;;19.80;99.90;;;;;;5037213;28;20315;-81
2022/05/20 06:31:19;;;;;;;1.37;1.27;;;19.80;99.90;;;;;;5066202;28;20197;-81
2022/05/20 06:33:44;;;;;;;0.67;0.60;;;20.10;99.90;;;;;;5054892;28;20211;-82
2022/05/20 06:41:38;;;;;;;1.10;0.83;;;20.60;99.90;;;;;;5053224;28;20256;-81
2022/05/20 06:44:04;;;;;;;0.50;0.50;;;20.80;99.90;;;;;;5051408;28;20185;-82
2022/05/20 06:46:30;;;;;;;0.83;0.70;;;21.20;99.90;;;;;;5050640;28;20246;-81
2022/05/20 06:48:56;;;;;;;1.10;0.53;;;21.30;99.90;;;;;;5051029;28;20186;-82
2022/05/20 06:51:24;;;;;;;0.77;0.77;;;21.60;99.90;;;;;;5035121;28;21109;-81
2022/05/20 06:53:52;;;;;;;0.80;0.80;;;21.40;99.90;;;;;;5034465;28;20188;-82
2022/05/20 06:56:19;;;;;;;0.60;0.40;;;20.60;99.90;;;;;;5036525;28;20204;-82
2022/05/20 06:58:45;;;;;;;0.60;0.60;;;20.50;99.90;;;;;;5053090;28;20177;-81
2022/05/20 07:01:12;;;;;;;0.93;0.70;;;21.00;99.90;;;;;;5034640;28;20673;-81
2022/05/20 07:03:38;;;;;;;1.13;0.87;;;21.40;99.90;;;;;;5034209;28;20625;-81
2022/05/20 07:06:04;;;;;;;0.67;0.43;;;21.80;99.90;;;;;;5035052;28;20280;-81
2022/05/20 07:08:30;;;;;;;0.60;0.60;;;21.70;99.90;;;;;;5052943;28;20204;-81
2022/05/20 07:10:56;;;;;;;0.30;0.30;;;22.10;99.90;;;;;;5055766;28;20220;-81
2022/05/20 07:13:22;;;;;;;0.40;0.40;;;21.70;99.90;;;;;;5055850;28;20631;-81
2022/05/20 07:15:48;;;;;;;0.37;0.37;;;22.00;99.90;;;;;;5055889;28;20258;-81
2022/05/20 07:18:13;;;;;;;0.37;0.37;;;22.30;99.90;;;;;;5036031;28;20191;-81
2022/05/20 07:20:40;;;;;;;0.67;0.60;;;22.70;99.90;;;;;;5039169;28;20218;-80
2022/05/20 07:23:06;;;;;;;0.77;0.63;;;22.80;99.90;;;;;;5069767;28;20173;-79
2022/05/20 07:25:33;;;;;;;0.60;0.60;;;22.80;99.90;;;;;;5055708;28;20182;-82
2022/05/20 07:27:59;;;;;;;0.50;0.50;;;23.00;99.90;;;;;;5039960;28;20182;-81
2022/05/20 07:30:25;;;;;;;0.63;0.63;;;22.20;99.90;;;;;;5057810;28;20182;-81
2022/05/20 07:32:51;;;;;;;0.87;0.87;;;22.20;99.90;;;;;;5038114;28;20182;-80
2022/05/20 07:35:17;;;;;;;0.60;0.60;;;22.20;99.90;;;;;;5040204;28;20181;-80
2022/05/20 07:37:42;;;;;;;1.27;1.17;;;21.80;99.90;;;;;;5053955;28;20208;-80
2022/05/20 07:40:09;;;;;;;2.20;0.60;;;21.60;99.90;;;;;;5056751;28;20201;-80
2022/05/20 07:42:34;;;;;;;5.20;0.70;;;22.50;99.90;;;;;;5038400;28;20535;-79
2022/05/20 07:45:01;;;;;;;1.90;0.67;;;22.70;99.90;;;;;;5054319;28;20300;-80
2022/05/20 07:47:27;;;;;;;0.53;0.53;;;22.60;99.90;;;;;;5053800;28;20297;-82
2022/05/20 07:49:53;;;;;;;1.83;0.67;;;23.00;99.90;;;;;;5054963;28;20281;-82
2022/05/20 07:53:19;;;;;;;1.07;1.07;;;23.30;99.90;;;;;;5058853;28;20227;-82
2022/05/20 07:55:07;;;;;;;0.90;0.73;;;23.60;99.90;;;;;;5054609;28;20902;-82
2022/05/20 07:57:33;;;;;;;0.73;0.70;;;23.50;99.90;;;;;;5038736;28;20236;-82
2022/05/20 08:00:00;;;;;;;0.30;0.30;;;23.90;99.90;;;;;;5054982;28;20182;-82
2022/05/20 08:02:29;;;;;;;0.70;0.70;;;24.40;99.90;;;;;;5055454;28;20201;-82
2022/05/20 08:05:00;;;;;;;0.40;0.40;;;24.80;99.90;;;;;;5036524;28;20182;-81
2022/05/20 08:07:36;;;;;;;1.50;0.70;;;24.50;99.90;;;;;;5055212;28;20671;-82
2022/05/20 08:10:06;;;;;;;4.47;1.60;;;23.70;99.90;;;;;;5038783;28;20188;-83
2022/05/20 08:12:32;;;;;;;1.67;1.57;;;23.50;99.90;;;;;;5037144;28;20648;-83
2022/05/20 08:14:57;;;;;;;2.43;1.17;;;23.30;99.90;;;;;;5035808;28;20228;-82
2022/05/20 08:17:24;;;;;;;2.73;1.20;;;22.70;99.90;;;;;;5036392;28;20216;-82
2022/05/20 08:19:51;;;;;;;0.90;0.90;;;22.50;99.90;;;;;;5057888;28;20185;-82
2022/05/20 08:22:22;;;;;;;1.00;0.93;;;22.50;99.90;;;;;;5056200;28;20213;-82
2022/05/20 08:24:54;;;;;;;1.80;1.40;;;23.00;99.90;;;;;;5055754;28;20200;-82
2022/05/20 08:27:22;;;;;;;1.13;0.87;;;22.50;99.90;;;;;;5033855;28;20440;-82
2022/05/20 08:29:48;;;;;;;1.50;0.70;;;22.50;99.90;;;;;;5037435;28;20185;-82
2022/05/20 08:32:15;;;;;;;0.73;0.73;;;22.80;99.90;;;;;;5056115;28;20189;-81
2022/05/20 08:34:45;;;;;;;0.83;0.83;;;23.50;99.90;;;;;;5036471;28;20689;-82
2022/05/20 08:37:11;;;;;;;1.40;1.33;;;24.10;99.90;;;;;;5069733;28;20213;-82
2022/05/20 08:39:37;;;;;;;0.80;0.80;;;23.30;99.90;;;;;;5056476;28;20197;-82
2022/05/20 08:42:05;;;;;;;2.00;1.57;;;23.60;99.90;;;;;;5036256;28;20174;-82
2022/05/20 08:44:33;;;;;;;1.00;0.90;;;23.50;99.90;;;;;;5055320;28;20185;-82
2022/05/20 08:47:20;;;;;;;0.87;0.87;;;23.60;99.90;;;;;;5054529;28;20259;-82
2022/05/20 08:49:46;;;;;;;1.07;1.07;;;24.00;99.90;;;;;;5052823;28;20877;-82
2022/05/20 08:52:11;;;;;;;0.83;0.70;;;23.80;99.90;;;;;;5036390;28;20272;-82
2022/05/20 08:54:45;;;;;;;13.17;2.20;;;24.40;99.90;;;;;;5069358;28;20192;-82
2022/05/20 08:57:19;;;;;;;1.20;1.10;;;24.20;99.90;;;;;;5056181;28;20631;-82
2022/05/20 08:59:44;;;;;;;1.47;1.33;;;23.90;99.90;;;;;;5055991;28;20178;-82
2022/05/20 09:02:10;;;;;;;1.90;0.87;;;23.20;99.90;;;;;;5036822;28;20185;-82
2022/05/20 09:04:35;;;;;;;1.10;1.03;;;24.00;99.90;;;;;;5055847;28;20677;-82
2022/05/20 09:07:06;;;;;;;0.83;0.83;;;24.50;99.90;;;;;;5057408;28;20209;-81
2022/05/20 09:09:46;;;;;;;0.80;0.73;;;24.80;99.90;;;;;;5054427;28;20243;-82
2022/05/20 09:12:23;;;;;;;1.10;1.00;;;25.00;99.90;;;;;;5037268;28;20177;-81
2022/05/20 09:17:43;;;;;;;1.27;1.20;;;25.80;99.90;;;;;;5055632;28;20274;-81
2022/05/20 09:20:14;;;;;;;1.10;1.10;;;25.10;99.90;;;;;;5038588;28;20588;-82
2022/05/20 09:22:40;;;;;;;1.43;1.33;;;25.90;99.90;;;;;;5051689;28;20174;-82
2022/05/20 09:25:18;;;;;;;1.20;1.03;;;25.80;99.90;;;;;;5036870;28;20743;-82
2022/05/20 09:27:43;;;;;;;1.47;0.90;;;25.30;99.90;;;;;;5054743;28;20201;-81
2022/05/20 09:30:13;;;;;;;0.90;0.90;;;25.30;99.90;;;;;;5052576;28;20189;-82
2022/05/20 09:33:01;;;;;;;1.13;1.03;;;26.00;99.90;;;;;;5037769;28;20180;-81
2022/05/20 09:35:33;;;;;;;0.50;0.50;;;26.20;99.90;;;;;;5055388;28;20719;-82
2022/05/20 09:37:58;;;;;;;1.03;0.93;;;26.40;99.90;;;;;;5070394;28;20690;-81
2022/05/20 09:40:41;;;;;;;1.27;0.80;;;26.40;99.90;;;;;;5053383;28;20210;-82
2022/05/20 09:43:25;;;;;;;1.43;1.10;;;26.30;99.90;;;;;;5069200;28;20635;-82
2022/05/20 09:45:51;;;;;;;2.03;1.20;;;26.20;99.90;;;;;;5039213;28;20205;-82
2022/05/20 09:48:35;;;;;;;0.57;0.57;;;26.80;99.90;;;;;;5054711;28;20197;-82
2022/05/20 09:51:26;;;;;;;1.10;0.83;;;27.10;99.90;;;;;;5036159;28;20185;-82
2022/05/20 09:54:22;;;;;;;7.83;1.20;;;27.10;99.90;;;;;;5033854;28;20227;-82
2022/05/20 09:57:10;;;;;;;1.10;1.03;;;27.20;99.90;;;;;;5036321;28;20233;-82
2022/05/20 10:00:13;;;;;;;1.63;1.53;;;26.90;99.90;;;;;;5053432;28;20582;-82
2022/05/20 10:02:51;;;;;;;2.27;2.07;;;27.10;99.90;;;;;;5036999;28;20184;-82
2022/05/20 10:06:07;;;;;;;0.85;0.75;;;27.50;99.90;;;;;;5056934;28;20277;-82
2022/05/20 10:08:48;;;;;;;1.08;1.08;;;27.50;99.90;;;;;;5027219;28;20213;-82
2022/05/20 10:11:50;;;;;;;0.98;0.98;;;27.70;99.90;;;;;;5050787;28;20260;-82
2022/05/20 10:14:21;;;;;;;2.53;1.65;;;28.10;99.90;;;;;;5050106;28;20726;-82
2022/05/20 10:17:15;;;;;;;6.03;1.77;;;26.80;99.90;;;;;;5052941;28;20282;-82
2022/05/20 10:20:08;;;;;;;0.98;0.98;;;27.30;99.90;;;;;;5054116;28;20193;-82
2022/05/20 10:22:45;;;;;;;1.73;1.63;;;27.70;99.90;;;;;;5054432;28;20177;-82
2022/05/20 10:25:45;;;;;;;1.50;1.40;;;27.30;99.90;;;;;;5036767;28;20288;-82
2022/05/20 10:32:34;;;;;;;1.80;1.70;;;27.50;99.90;;;;;;5053103;28;20193;-81
2022/05/20 10:33:56;;;;;;;1.52;1.23;;;27.60;99.90;;;;;;5051670;28;20193;-82
2022/05/20 10:36:40;;;;;;;1.85;1.20;;;28.00;99.90;;;;;;5034412;28;20210;-82
2022/05/20 10:39:43;;;;;;;2.28;1.38;;;28.30;99.90;;;;;;5051664;28;20181;-83
2022/05/20 10:42:32;;;;;;;1.48;1.38;;;28.40;99.90;;;;;;5051205;28;20177;-82
2022/05/20 10:48:41;;;;;;;2.80;2.42;;;28.60;99.90;;;;;;5056670;28;20193;-82
2022/05/20 10:51:43;;;;;;;1.40;1.30;;;27.80;99.90;;;;;;4966861;28;20191;-81
2022/05/20 10:54:52;;;;;;;1.20;1.10;;;28.10;99.90;;;;;;4960705;28;20206;-82
2022/05/20 10:57:50;;;;;;;1.48;1.38;;;28.40;99.90;;;;;;5056879;28;20224;-82
2022/05/20 11:00:21;;;;;;;1.70;1.40;;;29.00;99.90;;;;;;5034534;28;20178;-82
2022/05/20 11:03:24;;;;;;;2.13;1.65;;;28.80;99.90;;;;;;5037857;28;20268;-82
2022/05/20 11:06:14;;;;;;;1.92;1.42;;;28.70;99.90;;;;;;5054603;28;20219;-82
2022/05/20 11:09:00;;;;;;;1.75;1.23;;;29.00;99.90;;;;;;5054695;28;20371;-82
2022/05/20 11:11:46;;;;;;;1.25;1.15;;;29.30;99.90;;;;;;5036776;28;20556;-82
2022/05/20 11:14:23;;;;;;;1.73;1.60;;;29.40;99.90;;;;;;5053422;28;20202;-82
2022/05/20 11:17:19;;;;;;;3.25;1.95;;;29.20;99.90;;;;;;5069818;28;20225;-82
2022/05/20 11:20:10;;;;;;;1.02;1.00;;;28.70;99.90;;;;;;5056198;28;20219;-82
2022/05/20 11:23:02;;;;;;;1.63;1.52;;;28.70;99.90;;;;;;5054982;28;20201;-81
2022/05/20 11:25:43;;;;;;;1.60;1.50;;;28.40;99.90;;;;;;5047813;28;20170;-82
2022/05/20 11:28:26;;;;;;;1.33;1.20;;;28.30;99.90;;;;;;5036084;28;20276;-81
2022/05/20 11:31:10;;;;;;;2.60;2.05;;;27.80;99.90;;;;;;5039875;28;20185;-82
2022/05/20 11:34:08;;;;;;;1.45;1.35;;;28.30;99.90;;;;;;5056867;28;20677;-82
2022/05/20 11:36:52;;;;;;;2.33;2.13;;;29.20;99.90;;;;;;5038539;28;20217;-82
2022/05/20 11:39:35;;;;;;;2.08;1.70;;;28.80;99.90;;;;;;5056917;28;20287;-82
2022/05/20 11:42:31;;;;;;;1.30;1.20;;;28.30;99.90;;;;;;5058214;28;20178;-82
2022/05/20 11:45:12;;;;;;;3.15;1.23;;;28.60;99.90;;;;;;5057236;28;20230;-81
2022/05/20 11:47:48;;;;;;;2.53;1.70;;;28.80;99.90;;;;;;5041791;28;20201;-82
2022/05/20 11:50:38;;;;;;;2.40;1.38;;;28.30;99.90;;;;;;5056200;28;20239;-81
2022/05/20 11:53:03;;;;;;;1.65;1.58;;;28.00;99.90;;;;;;5057849;28;20197;-82
2022/05/20 11:55:42;;;;;;;1.98;1.83;;;28.10;99.90;;;;;;5039208;28;20181;-82
2022/05/20 11:58:17;;;;;;;0.90;0.75;;;28.50;99.90;;;;;;5036273;28;20217;-81
2022/05/20 12:00:43;;;;;;;1.42;1.33;;;28.70;99.90;;;;;;5052652;28;20178;-80
2022/05/20 12:03:17;;;;;;;1.15;1.13;;;29.20;99.90;;;;;;5039393;28;20213;-80
2022/05/20 12:05:47;;;;;;;1.77;1.67;;;29.50;99.90;;;;;;5042698;28;20204;-82
2022/05/20 12:08:37;;;;;;;1.27;1.17;;;29.30;99.90;;;;;;5037682;28;20274;-82
2022/05/20 12:11:25;;;;;;;1.38;1.02;;;29.00;99.90;;;;;;5036413;28;20192;-82
2022/05/20 12:14:14;;;;;;;2.35;1.45;;;28.90;99.90;;;;;;5053578;28;20663;-82
2022/05/20 12:17:05;;;;;;;9.40;1.85;;;28.70;99.90;;;;;;5055127;28;20209;-82
2022/05/20 12:25:50;;;;;;;1.35;0.98;;;29.60;99.90;;;;;;5054018;28;20201;-82
2022/05/20 12:28:22;;;;;;;1.95;1.13;;;30.00;99.90;;;;;;5069170;28;20186;-82
2022/05/20 12:31:08;;;;;;;0.95;0.73;;;30.30;99.90;;;;;;5037738;28;20178;-82
2022/05/20 12:33:52;;;;;;;1.88;1.63;;;30.30;99.90;;;;;;5052092;28;20174;-82
2022/05/20 12:36:22;;;;;;;1.80;1.67;;;30.30;99.90;;;;;;5053813;28;20332;-82
2022/05/20 12:38:49;;;;;;;1.10;1.00;;;30.30;99.90;;;;;;5053627;28;20177;-82
2022/05/20 12:41:31;;;;;;;0.98;0.98;;;30.30;99.90;;;;;;5038346;28;20185;-82
2022/05/20 12:44:01;;;;;;;1.60;1.50;;;30.20;99.90;;;;;;5053209;28;20315;-82
2022/05/20 12:46:41;;;;;;;1.20;1.20;;;30.20;99.90;;;;;;5056098;28;20201;-83
2022/05/20 12:49:08;;;;;;;1.52;1.40;;;30.00;99.90;;;;;;5067916;28;20177;-82
2022/05/20 12:51:46;;;;;;;1.17;1.08;;;30.00;99.90;;;;;;5055247;28;20196;-82
2022/05/20 12:54:21;;;;;;;1.40;1.30;;;30.00;99.90;;;;;;5054493;28;20649;-82
2022/05/20 12:56:51;;;;;;;0.82;0.82;;;30.00;99.90;;;;;;5067556;28;20239;-82
2022/05/20 12:59:22;;;;;;;1.75;1.50;;;29.80;99.90;;;;;;5053866;28;20190;-83
2022/05/20 13:01:57;;;;;;;2.67;1.95;;;29.30;99.90;;;;;;5055329;28;20173;-82
2022/05/20 13:04:28;;;;;;;1.90;1.80;;;28.90;99.90;;;;;;5035268;28;20188;-81
2022/05/20 13:06:56;;;;;;;1.60;1.50;;;28.30;99.90;;;;;;5053456;28;20572;-82
2022/05/20 13:09:36;;;;;;;3.88;1.15;;;27.90;99.90;;;;;;5036122;28;20224;-81
2022/05/20 13:12:08;;;;;;;1.58;1.48;;;27.60;99.90;;;;;;5034937;28;20235;-82
2022/05/20 13:14:35;;;;;;;1.48;1.38;;;27.70;99.90;;;;;;5054187;28;20182;-82
2022/05/20 13:17:03;;;;;;;1.70;1.60;;;28.10;99.90;;;;;;5035565;28;20974;-82
2022/05/20 13:19:40;;;;;;;1.08;1.00;;;28.30;99.90;;;;;;5054169;28;20180;-83
2022/05/20 13:22:07;;;;;;;1.23;1.20;;;28.60;99.90;;;;;;5067484;28;20183;-82
2022/05/20 13:24:38;;;;;;;1.50;1.40;;;28.60;99.90;;;;;;5034824;28;20314;-82
2022/05/20 13:27:17;;;;;;;1.83;1.42;;;28.40;99.90;;;;;;5052506;28;20209;-82
2022/05/20 13:29:44;;;;;;;3.08;1.83;;;28.30;99.90;;;;;;5040557;28;20173;-82
2022/05/20 13:32:30;;;;;;;1.40;1.30;;;28.10;99.90;;;;;;5053216;28;20186;-83
2022/05/20 13:34:58;;;;;;;1.33;0.93;;;27.80;99.90;;;;;;5036476;28;20181;-82
2022/05/20 13:37:37;;;;;;;1.13;1.02;;;27.70;99.90;;;;;;5054210;28;20694;-81
2022/05/20 13:40:18;;;;;;;1.40;1.23;;;27.70;99.90;;;;;;5034622;28;20259;-82
2022/05/20 13:42:55;;;;;;;1.23;1.13;;;27.70;99.90;;;;;;5034293;28;20264;-82
2022/05/20 13:51:31;;;;;;;1.67;1.48;;;28.30;99.90;;;;;;5054646;28;20188;-82
2022/05/20 13:54:00;;;;;;;1.90;1.80;;;28.70;99.90;;;;;;5034990;28;20781;-82
2022/05/20 13:56:33;;;;;;;3.55;1.90;;;28.90;99.90;;;;;;5052127;28;20227;-82